Wetterdaten: Woche 11.04.16 - 17.04.16 (KW15)
Datum Zeit Temp. A. Feuchte A. Luftdruck Regen Wind Richtung Taupunkt Windchill Windben
11.04.2016 00:00 6,3 C 80 % 1013,4 hPa 0,0 l/m 0,4 km/h N 3,1 C 6,3 C 5,6 km/h
11.04.2016 01:00 6,1 C 81 % 1013,4 hPa 0,0 l/m 0,7 km/h N 3,1 C 6,1 C 5,6 km/h
11.04.2016 02:00 5,9 C 81 % 1013,5 hPa 0,0 l/m 2,2 km/h N 3,0 C 5,9 C 9,3 km/h
11.04.2016 03:00 6,2 C 80 % 1013,4 hPa 0,0 l/m 4,4 km/h N 3,0 C 6,2 C 12,5 km/h
11.04.2016 04:00 6,0 C 79 % 1013,4 hPa 0,0 l/m 4,5 km/h N 2,7 C 6,0 C 8,9 km/h
11.04.2016 05:00 5,9 C 79 % 1013,5 hPa 0,0 l/m 3,2 km/h N 2,5 C 5,9 C 12,1 km/h
11.04.2016 06:00 5,4 C 81 % 1013,8 hPa 0,0 l/m 1,6 km/h N 2,5 C 5,4 C 8,1 km/h
11.04.2016 07:00 6,7 C 80 % 1013,8 hPa 0,0 l/m 6,4 km/h N 3,4 C 6,0 C 16,9 km/h
11.04.2016 08:00 7,5 C 78 % 1014,0 hPa 0,0 l/m 8,9 km/h N 3,8 C 5,6 C 20,9 km/h
11.04.2016 09:00 8,3 C 75 % 1014,2 hPa 0,0 l/m 8,9 km/h N 4,1 C 6,4 C 22,5 km/h
11.04.2016 10:00 9,1 C 74 % 1014,2 hPa 0,0 l/m 8,9 km/h N 4,6 C 7,3 C 23,3 km/h
11.04.2016 11:00 9,9 C 72 % 1014,2 hPa 0,0 l/m 8,9 km/h N 5,1 C 8,2 C 20,9 km/h
11.04.2016 12:00 11,3 C 71 % 1013,8 hPa 0,0 l/m 6,4 km/h N 6,1 C 11,3 C 20,1 km/h
11.04.2016 13:00 12,1 C 69 % 1013,3 hPa 0,0 l/m 6,4 km/h N 6,5 C 12,1 C 19,3 km/h
11.04.2016 14:00 12,8 C 68 % 1012,8 hPa 0,0 l/m 7,2 km/h N 7,0 C 12,3 C 21,7 km/h
11.04.2016 15:00 13,4 C 69 % 1012,3 hPa 0,0 l/m 4,8 km/h N 7,7 C 13,4 C 20,9 km/h
11.04.2016 16:00 13,2 C 69 % 1011,8 hPa 0,0 l/m 4,5 km/h N 7,7 C 13,2 C 16,5 km/h
11.04.2016 17:00 12,8 C 71 % 1012,0 hPa 0,0 l/m 4,4 km/h N 7,6 C 12,8 C 15,3 km/h
11.04.2016 18:00 12,3 C 73 % 1012,0 hPa 0,0 l/m 2,5 km/h N 7,5 C 12,3 C 10,5 km/h
11.04.2016 19:00 11,5 C 76 % 1012,1 hPa 0,0 l/m 0,8 km/h N 7,3 C 11,5 C 7,2 km/h
11.04.2016 20:00 11,1 C 78 % 1012,3 hPa 0,0 l/m 0,2 km/h N 7,3 C 11,1 C 3,6 km/h
11.04.2016 21:00 10,7 C 79 % 1012,5 hPa 0,0 l/m 0,0 km/h N 7,1 C 10,7 C 0,4 km/h
11.04.2016 22:00 9,8 C 80 % 1012,3 hPa 0,0 l/m 0,0 km/h N 6,5 C 9,8 C 1,2 km/h
11.04.2016 23:00 8,7 C 81 % 1012,5 hPa 0,0 l/m 0,0 km/h N 5,6 C 8,7 C 0,0 km/h
12.04.2016 00:00 8,4 C 82 % 1012,4 hPa 0,0 l/m 0,0 km/h N 5,6 C 8,4 C 0,0 km/h
12.04.2016 01:00 8,8 C 83 % 1012,2 hPa 0,0 l/m 0,0 km/h N 6,1 C 8,8 C 0,8 km/h
12.04.2016 02:00 9,2 C 83 % 1012,0 hPa 0,0 l/m 0,0 km/h N 6,5 C 9,2 C 0,4 km/h
12.04.2016 03:00 9,5 C 83 % 1011,8 hPa 0,0 l/m 0,0 km/h N 6,7 C 9,5 C 0,0 km/h
12.04.2016 04:00 9,4 C 83 % 1011,5 hPa 0,0 l/m 0,0 km/h N 6,7 C 9,4 C 0,0 km/h
12.04.2016 05:00 9,3 C 83 % 1011,3 hPa 0,0 l/m 0,0 km/h N 6,6 C 9,3 C 0,0 km/h
12.04.2016 06:00 9,3 C 83 % 1011,2 hPa 0,0 l/m 0,0 km/h N 6,5 C 9,3 C 0,0 km/h
12.04.2016 07:00 9,3 C 83 % 1011,3 hPa 0,0 l/m 0,0 km/h N 6,5 C 9,3 C 0,4 km/h
12.04.2016 08:00 9,6 C 83 % 1011,6 hPa 0,0 l/m 0,0 km/h N 6,9 C 9,6 C 0,8 km/h
12.04.2016 09:00 10,0 C 83 % 1011,5 hPa 0,0 l/m 0,0 km/h N 7,2 C 10,0 C 1,2 km/h
12.04.2016 10:00 10,5 C 83 % 1011,3 hPa 0,0 l/m 0,3 km/h N 7,6 C 10,5 C 3,2 km/h
12.04.2016 11:00 11,0 C 81 % 1011,3 hPa 0,0 l/m 1,2 km/h N 7,8 C 11,0 C 6,8 km/h
12.04.2016 12:00 11,7 C 78 % 1011,5 hPa 0,0 l/m 1,3 km/h N 7,9 C 11,7 C 7,2 km/h
12.04.2016 13:00 12,4 C 74 % 1011,8 hPa 0,0 l/m 6,4 km/h N 8,0 C 11,9 C 17,3 km/h
12.04.2016 14:00 13,3 C 72 % 1011,9 hPa 0,0 l/m 5,9 km/h N 8,2 C 12,8 C 16,1 km/h
12.04.2016 15:00 14,8 C 68 % 1011,3 hPa 0,0 l/m 6,9 km/h N 8,9 C 14,5 C 18,9 km/h
12.04.2016 16:00 15,8 C 64 % 1011,0 hPa 0,0 l/m 8,1 km/h N 9,1 C 14,9 C 20,5 km/h
12.04.2016 17:00 16,0 C 64 % 1010,5 hPa 0,0 l/m 5,4 km/h N 9,1 C 16,0 C 15,3 km/h
12.04.2016 18:00 16,3 C 60 % 1010,0 hPa 0,0 l/m 3,4 km/h N 8,4 C 16,3 C 11,3 km/h
12.04.2016 19:00 15,5 C 62 % 1010,1 hPa 0,0 l/m 1,0 km/h N 8,3 C 15,5 C 5,2 km/h
12.04.2016 20:00 12,8 C 69 % 1010,1 hPa 0,0 l/m 0,0 km/h N 7,2 C 12,8 C 1,2 km/h
12.04.2016 21:00 10,7 C 76 % 1010,1 hPa 0,0 l/m 0,1 km/h N 6,6 C 10,7 C 1,6 km/h
12.04.2016 22:00 10,4 C 78 % 1010,3 hPa 0,0 l/m 0,1 km/h N 6,8 C 10,4 C 1,2 km/h
12.04.2016 23:00 8,8 C 80 % 1010,4 hPa 0,0 l/m 0,0 km/h N 5,5 C 8,8 C 1,2 km/h
13.04.2016 00:00 7,7 C 82 % 1010,3 hPa 0,0 l/m 0,0 km/h N 4,9 C 7,7 C 0,0 km/h
13.04.2016 01:00 7,0 C 83 % 1009,9 hPa 0,0 l/m 0,0 km/h N 4,3 C 7,0 C 0,0 km/h
13.04.2016 02:00 6,2 C 83 % 1009,6 hPa 0,0 l/m 0,0 km/h N 3,5 C 6,2 C 0,0 km/h
13.04.2016 03:00 5,6 C 83 % 1009,1 hPa 0,0 l/m 0,0 km/h N 2,9 C 5,6 C 0,0 km/h
13.04.2016 04:00 5,2 C 83 % 1009,0 hPa 0,0 l/m 0,0 km/h N 2,5 C 5,2 C 0,0 km/h
13.04.2016 05:00 4,6 C 83 % 1008,8 hPa 0,0 l/m 0,0 km/h N 1,9 C 4,6 C 0,0 km/h
13.04.2016 06:00 4,5 C 83 % 1008,6 hPa 0,0 l/m 0,0 km/h N 1,9 C 4,5 C 0,4 km/h
13.04.2016 07:00 6,0 C 82 % 1008,7 hPa 0,0 l/m 0,0 km/h N 3,1 C 6,0 C 1,2 km/h
13.04.2016 08:00 8,6 C 80 % 1008,7 hPa 0,0 l/m 0,5 km/h N 5,4 C 8,6 C 4,8 km/h
13.04.2016 09:00 11,8 C 81 % 1008,2 hPa 0,0 l/m 0,7 km/h N 8,7 C 11,8 C 6,0 km/h
13.04.2016 10:00 15,1 C 73 % 1008,2 hPa 0,0 l/m 0,4 km/h N 10,4 C 15,1 C 5,2 km/h
13.04.2016 11:00 17,8 C 65 % 1007,8 hPa 0,0 l/m 0,6 km/h N 11,1 C 17,8 C 6,0 km/h
13.04.2016 12:00 19,3 C 60 % 1007,2 hPa 0,0 l/m 0,5 km/h N 11,4 C 19,3 C 6,4 km/h
13.04.2016 13:00 19,5 C 59 % 1006,5 hPa 0,0 l/m 1,1 km/h N 11,3 C 19,5 C 8,0 km/h
13.04.2016 14:00 20,6 C 56 % 1005,6 hPa 0,0 l/m 1,2 km/h N 11,6 C 20,6 C 8,0 km/h
13.04.2016 15:00 20,7 C 53 % 1004,8 hPa 0,0 l/m 0,4 km/h N 10,8 C 20,7 C 5,2 km/h
13.04.2016 16:00 20,6 C 53 % 1004,0 hPa 0,0 l/m 0,6 km/h N 10,6 C 20,6 C 5,6 km/h
13.04.2016 17:00 20,2 C 51 % 1003,3 hPa 0,0 l/m 0,3 km/h N 9,7 C 20,2 C 4,0 km/h
13.04.2016 18:00 19,4 C 51 % 1002,7 hPa 0,0 l/m 0,0 km/h N 8,9 C 19,4 C 1,2 km/h
13.04.2016 19:00 18,1 C 58 % 1002,3 hPa 0,0 l/m 0,1 km/h N 9,6 C 18,1 C 2,4 km/h
13.04.2016 20:00 16,3 C 73 % 1002,5 hPa 2,3 l/m 0,8 km/h N 11,3 C 16,3 C 5,6 km/h
13.04.2016 21:00 14,3 C 80 % 1002,7 hPa 1,3 l/m 0,1 km/h N 11,0 C 14,3 C 2,0 km/h
13.04.2016 22:00 12,9 C 82 % 1003,6 hPa 2,6 l/m 5,8 km/h N 9,9 C 11,8 C 20,1 km/h
13.04.2016 23:00 11,9 C 81 % 1004,6 hPa 2,1 l/m 8,9 km/h N 8,7 C 10,3 C 31,8 km/h
14.04.2016 00:00 11,2 C 82 % 1004,7 hPa 2,1 l/m 9,8 km/h N 8,2 C 9,0 C 29,4 km/h
14.04.2016 01:00 11,0 C 83 % 1004,4 hPa 0,8 l/m 10,0 km/h N 8,2 C 8,8 C 25,7 km/h
14.04.2016 02:00 11,2 C 82 % 1004,2 hPa 0,5 l/m 12,5 km/h N 8,2 C 7,8 C 27,8 km/h
14.04.2016 03:00 11,2 C 81 % 1004,5 hPa 0,0 l/m 10,4 km/h N 8,1 C 8,8 C 28,5 km/h
14.04.2016 04:00 11,4 C 79 % 1004,5 hPa 0,0 l/m 9,6 km/h N 7,8 C 9,4 C 26,1 km/h
14.04.2016 05:00 11,6 C 77 % 1004,5 hPa 0,0 l/m 10,1 km/h N 7,8 C 9,4 C 26,5 km/h
14.04.2016 06:00 11,4 C 77 % 1004,9 hPa 0,0 l/m 6,1 km/h N 7,5 C 11,0 C 20,5 km/h
14.04.2016 07:00 11,4 C 78 % 1005,2 hPa 0,0 l/m 8,4 km/h N 7,7 C 10,1 C 22,5 km/h
14.04.2016 08:00 11,9 C 76 % 1005,6 hPa 0,0 l/m 10,2 km/h N 7,8 C 9,6 C 24,5 km/h
14.04.2016 09:00 12,8 C 72 % 1006,3 hPa 0,0 l/m 11,6 km/h N 7,9 C 10,1 C 28,6 km/h
14.04.2016 10:00 13,2 C 70 % 1006,7 hPa 0,0 l/m 14,2 km/h N 7,8 C 9,3 C 31,8 km/h
14.04.2016 11:00 12,9 C 70 % 1007,3 hPa 0,0 l/m 12,8 km/h N 7,5 C 9,5 C 30,2 km/h
14.04.2016 12:00 13,4 C 67 % 1007,6 hPa 0,0 l/m 15,2 km/h N 7,4 C 9,3 C 32,2 km/h
14.04.2016 13:00 13,1 C 70 % 1007,9 hPa 0,0 l/m 12,8 km/h N 7,7 C 9,7 C 29,0 km/h
14.04.2016 14:00 13,3 C 70 % 1007,9 hPa 0,0 l/m 15,6 km/h N 7,8 C 8,9 C 36,6 km/h
14.04.2016 15:00 12,6 C 70 % 1008,2 hPa 0,0 l/m 15,4 km/h N 7,2 C 8,3 C 33,0 km/h
14.04.2016 16:00 12,8 C 70 % 1008,5 hPa 0,0 l/m 12,3 km/h N 7,5 C 9,6 C 27,4 km/h
14.04.2016 17:00 13,0 C 65 % 1009,0 hPa 0,0 l/m 12,9 km/h N 6,5 C 9,6 C 33,8 km/h
14.04.2016 18:00 12,8 C 66 % 1009,7 hPa 0,0 l/m 12,1 km/h N 6,5 C 9,8 C 28,2 km/h
14.04.2016 19:00 12,8 C 64 % 1010,1 hPa 0,0 l/m 13,1 km/h N 6,1 C 9,3 C 29,0 km/h
14.04.2016 20:00 12,3 C 67 % 1010,8 hPa 0,0 l/m 10,2 km/h N 6,4 C 10,0 C 23,7 km/h
14.04.2016 21:00 11,9 C 69 % 1011,5 hPa 0,0 l/m 9,2 km/h N 6,4 C 10,2 C 21,7 km/h
14.04.2016 22:00 11,5 C 70 % 1012,0 hPa 0,0 l/m 11,0 km/h N 6,3 C 8,8 C 23,7 km/h
14.04.2016 23:00 11,0 C 72 % 1012,6 hPa 0,0 l/m 5,7 km/h N 6,0 C 10,8 C 16,9 km/h
15.04.2016 00:00 10,5 C 72 % 1012,9 hPa 0,0 l/m 3,4 km/h N 5,7 C 10,5 C 11,7 km/h
15.04.2016 01:00 9,6 C 75 % 1012,9 hPa 0,0 l/m 1,4 km/h N 5,4 C 9,6 C 8,0 km/h
15.04.2016 02:00 8,0 C 76 % 1012,9 hPa 0,0 l/m 0,0 km/h N 4,0 C 8,0 C 0,0 km/h
15.04.2016 03:00 6,2 C 80 % 1012,8 hPa 0,0 l/m 0,0 km/h N 3,0 C 6,2 C 0,0 km/h
15.04.2016 04:00 4,8 C 83 % 1013,1 hPa 0,0 l/m 0,0 km/h N 2,1 C 4,8 C 0,5 km/h
15.04.2016 05:00 4,4 C 83 % 1012,9 hPa 0,0 l/m 0,0 km/h N 1,7 C 4,4 C 0,8 km/h
15.04.2016 06:00 4,0 C 83 % 1012,8 hPa 0,0 l/m 0,0 km/h N 1,4 C 4,0 C 0,0 km/h
15.04.2016 07:00 4,4 C 83 % 1012,8 hPa 0,0 l/m 0,0 km/h N 1,7 C 4,4 C 0,4 km/h
15.04.2016 08:00 7,4 C 81 % 1012,2 hPa 0,0 l/m 0,1 km/h N 4,4 C 7,4 C 2,4 km/h
15.04.2016 09:00 10,3 C 82 % 1011,9 hPa 0,0 l/m 0,2 km/h N 7,4 C 10,3 C 3,2 km/h
15.04.2016 10:00 13,4 C 70 % 1011,2 hPa 0,0 l/m 1,5 km/h N 7,9 C 13,4 C 8,1 km/h
15.04.2016 11:00 15,8 C 60 % 1009,8 hPa 0,0 l/m 2,7 km/h N 8,1 C 15,8 C 14,9 km/h
15.04.2016 12:00 16,8 C 57 % 1008,8 hPa 0,0 l/m 1,3 km/h N 8,1 C 16,8 C 9,3 km/h
15.04.2016 13:00 17,9 C 53 % 1008,2 hPa 0,0 l/m 0,7 km/h N 8,1 C 17,9 C 6,4 km/h
15.04.2016 14:00 18,8 C 48 % 1007,7 hPa 0,0 l/m 1,0 km/h N 7,6 C 18,8 C 6,0 km/h
15.04.2016 15:00 19,3 C 50 % 1007,4 hPa 0,0 l/m 0,5 km/h N 8,5 C 19,3 C 5,6 km/h
15.04.2016 16:00 19,9 C 51 % 1007,2 hPa 0,0 l/m 0,6 km/h N 9,5 C 19,9 C 6,4 km/h
15.04.2016 17:00 19,1 C 53 % 1007,5 hPa 0,0 l/m 0,8 km/h N 9,4 C 19,1 C 5,6 km/h
15.04.2016 18:00 17,3 C 56 % 1008,3 hPa 0,0 l/m 9,4 km/h N 8,4 C 15,6 C 23,3 km/h
15.04.2016 19:00 15,4 C 60 % 1009,0 hPa 0,0 l/m 9,1 km/h N 7,6 C 14,0 C 25,3 km/h
15.04.2016 20:00 14,0 C 60 % 1009,0 hPa 0,0 l/m 2,4 km/h N 6,4 C 14,0 C 12,5 km/h
15.04.2016 21:00 13,2 C 63 % 1008,7 hPa 0,0 l/m 1,9 km/h N 6,3 C 13,2 C 8,0 km/h
15.04.2016 22:00 13,2 C 63 % 1008,7 hPa 0,0 l/m 0,6 km/h N 6,2 C 13,2 C 4,0 km/h
15.04.2016 23:00 12,3 C 67 % 1008,7 hPa 0,0 l/m 0,0 km/h N 6,2 C 12,3 C 1,2 km/h
16.04.2016 00:00 10,1 C 73 % 1008,8 hPa 0,0 l/m 0,0 km/h N 5,4 C 10,1 C 1,2 km/h
16.04.2016 01:00 9,3 C 77 % 1008,6 hPa 0,0 l/m 0,1 km/h N 5,5 C 9,3 C 2,8 km/h
16.04.2016 02:00 9,1 C 79 % 1008,5 hPa 0,0 l/m 0,0 km/h N 5,5 C 9,1 C 0,4 km/h
16.04.2016 03:00 9,1 C 79 % 1008,2 hPa 0,0 l/m 0,0 km/h N 5,5 C 9,1 C 0,0 km/h
16.04.2016 04:00 8,0 C 79 % 1008,1 hPa 0,0 l/m 0,0 km/h N 4,6 C 8,0 C 0,8 km/h
16.04.2016 05:00 7,1 C 81 % 1007,9 hPa 0,0 l/m 0,0 km/h N 4,1 C 7,1 C 0,0 km/h
16.04.2016 06:00 6,2 C 83 % 1008,0 hPa 0,0 l/m 0,0 km/h N 3,5 C 6,2 C 0,4 km/h
16.04.2016 07:00 6,8 C 83 % 1007,9 hPa 0,0 l/m 0,0 km/h N 4,1 C 6,8 C 0,0 km/h
16.04.2016 08:00 9,7 C 82 % 1007,6 hPa 0,0 l/m 0,0 km/h N 6,8 C 9,7 C 2,0 km/h
16.04.2016 09:00 13,6 C 74 % 1006,6 hPa 0,0 l/m 0,2 km/h N 8,9 C 13,6 C 3,6 km/h
16.04.2016 10:00 15,7 C 66 % 1006,0 hPa 0,0 l/m 0,6 km/h N 9,4 C 15,7 C 5,6 km/h
16.04.2016 11:00 17,6 C 63 % 1005,6 hPa 0,0 l/m 0,5 km/h N 10,4 C 17,6 C 6,0 km/h
16.04.2016 12:00 18,7 C 62 % 1005,3 hPa 0,0 l/m 1,0 km/h N 11,1 C 18,7 C 7,6 km/h
16.04.2016 13:00 20,1 C 57 % 1004,8 hPa 0,0 l/m 1,1 km/h N 11,3 C 20,1 C 9,2 km/h
16.04.2016 14:00 22,3 C 50 % 1004,4 hPa 0,0 l/m 0,9 km/h N 11,4 C 22,3 C 6,8 km/h
16.04.2016 15:00 22,7 C 46 % 1004,4 hPa 0,0 l/m 0,6 km/h N 10,5 C 22,7 C 6,0 km/h
16.04.2016 16:00 22,8 C 46 % 1004,5 hPa 0,0 l/m 0,4 km/h N 10,6 C 22,8 C 3,6 km/h
16.04.2016 17:00 22,4 C 47 % 1004,7 hPa 0,0 l/m 0,0 km/h N 10,6 C 22,4 C 2,0 km/h
16.04.2016 18:00 20,5 C 59 % 1005,7 hPa 0,0 l/m 2,0 km/h N 12,2 C 20,5 C 8,9 km/h
16.04.2016 19:00 19,4 C 63 % 1006,2 hPa 0,0 l/m 1,0 km/h N 12,2 C 19,4 C 5,6 km/h
16.04.2016 20:00 17,5 C 67 % 1006,6 hPa 0,0 l/m 0,0 km/h N 11,3 C 17,5 C 0,8 km/h
16.04.2016 21:00 15,3 C 70 % 1006,6 hPa 0,0 l/m 0,0 km/h N 9,9 C 15,3 C 0,8 km/h
16.04.2016 22:00 13,9 C 77 % 1006,8 hPa 0,0 l/m 0,0 km/h N 10,0 C 13,9 C 0,4 km/h
16.04.2016 23:00 13,1 C 79 % 1006,9 hPa 0,0 l/m 0,2 km/h N 9,5 C 13,1 C 2,4 km/h
17.04.2016 00:00 11,7 C 80 % 1006,5 hPa 0,0 l/m 0,1 km/h N 8,5 C 11,7 C 1,6 km/h
17.04.2016 01:00 11,0 C 82 % 1005,8 hPa 0,0 l/m 0,1 km/h N 8,1 C 11,0 C 0,8 km/h
17.04.2016 02:00 10,1 C 82 % 1004,8 hPa 0,0 l/m 0,1 km/h N 7,2 C 10,1 C 2,0 km/h
17.04.2016 03:00 9,0 C 83 % 1003,9 hPa 0,0 l/m 0,0 km/h N 6,2 C 9,0 C 0,8 km/h
17.04.2016 04:00 7,7 C 83 % 1003,2 hPa 0,0 l/m 0,0 km/h N 5,0 C 7,7 C 0,0 km/h
17.04.2016 05:00 7,2 C 83 % 1002,9 hPa 0,0 l/m 0,0 km/h N 4,5 C 7,2 C 0,8 km/h
17.04.2016 06:00 6,9 C 83 % 1002,8 hPa 0,0 l/m 0,0 km/h N 4,2 C 6,9 C 0,4 km/h
17.04.2016 07:00 8,2 C 82 % 1003,0 hPa 0,0 l/m 0,1 km/h N 5,2 C 8,2 C 1,2 km/h
17.04.2016 08:00 10,8 C 81 % 1003,3 hPa 0,0 l/m 0,3 km/h N 7,7 C 10,8 C 2,4 km/h
17.04.2016 09:00 14,1 C 80 % 1003,8 hPa 0,0 l/m 0,0 km/h N 10,7 C 14,1 C 1,6 km/h
17.04.2016 10:00 18,0 C 63 % 1005,3 hPa 0,0 l/m 4,9 km/h N 10,7 C 17,5 C 18,5 km/h
17.04.2016 11:00 19,7 C 55 % 1006,3 hPa 0,0 l/m 10,1 km/h N 10,3 C 18,3 C 27,0 km/h
17.04.2016 12:00 20,8 C 53 % 1007,0 hPa 0,0 l/m 8,1 km/h N 10,8 C 20,1 C 22,9 km/h
17.04.2016 13:00 21,2 C 52 % 1007,4 hPa 0,0 l/m 8,9 km/h N 10,8 C 20,3 C 22,5 km/h
17.04.2016 14:00 20,9 C 50 % 1007,7 hPa 0,0 l/m 8,3 km/h N 10,0 C 20,2 C 19,7 km/h
17.04.2016 15:00 20,5 C 49 % 1007,9 hPa 0,0 l/m 4,4 km/h N 9,5 C 20,6 C 16,5 km/h
17.04.2016 16:00 20,3 C 49 % 1008,1 hPa 0,0 l/m 1,8 km/h N 9,2 C 20,3 C 9,2 km/h
17.04.2016 17:00 19,8 C 53 % 1008,1 hPa 0,0 l/m 1,2 km/h N 9,8 C 19,8 C 6,4 km/h
17.04.2016 18:00 19,1 C 55 % 1008,3 hPa 0,0 l/m 1,3 km/h N 9,9 C 19,1 C 8,0 km/h
17.04.2016 19:00 17,5 C 62 % 1008,7 hPa 0,0 l/m 6,0 km/h N 10,1 C 17,3 C 16,1 km/h
17.04.2016 20:00 15,4 C 70 % 1009,7 hPa 0,0 l/m 9,3 km/h N 9,9 C 13,9 C 21,3 km/h
17.04.2016 21:00 14,2 C 74 % 1010,3 hPa 0,0 l/m 3,5 km/h N 9,6 C 14,2 C 11,3 km/h
17.04.2016 22:00 14,0 C 77 % 1010,8 hPa 0,0 l/m 5,4 km/h N 9,9 C 14,0 C 17,7 km/h
17.04.2016 23:00 13,8 C 78 % 1011,8 hPa 0,0 l/m 5,3 km/h N 9,9 C 13,5 C 14,5 km/h
Min-Datum _ 15.04.16 16.04.16 13.04.16 - 11.04.16 - 15.04.16 15.04.16 11.04.16
_ Min-Zeit 07:15 15:01 19:00 - 00:15 - 07:00 07:00 21:00
Minimum _ 3,8 C 44 % 1002,2 hPa - 0,0 km/h - 1,2 C 3,8 C 0,0 km/h
Max-Datum _ 16.04.16 12.04.16 11.04.16 13.04.16 14.04.16 - 16.04.16 16.04.16 13.04.16
_ Max-Zeit 16:15 00:30 09:30 22:15 12:15 - 18:45 14:46 23:15
Maximum _ 23,0 C 83 % 1014,3 hPa 2,6 l/m 18,4 km/h
N
- 13,2 C 22,9 C 40,2 km/h
N
Durchschnitt _ 12,5 C 72 % 1008,8 hPa #11,7 l/m 3,3 km/h N 7,3 C 12,0 C 10,1 km/h